PWSweather.com
Personal Weather Stations
Station Observations
KAZPHOEN90
RayThunderhill, Phoenix, AZ

RayThunderhillPhoenix, AZ

Lat: 33.312, Lon: -112.029

Elevation: 1260

Station Type: Davis Vantage VUE

High Low Average
Temperature 93.2°F34.0°C 59.7°F15.4°C 78.4°F25.8°C
Dew Point 30.0°F-1.1°C 18.9°F-7.3°C 23.9°F-4.5°C
Winds 4.8 mph 7.7 kmh Calm Calm 1.0 mph S1.6 kmh S
Wind Gusts 11.0 mph17.7 kmh -- 2.0 mph3.2 kmh
Humidity 29% 7% 15%
Pressure 29.85 in1010.8 mb 29.68 in1005.1 mb -
Precipitation 0.00 in0.0 mm - -
Hour Temp Dew Point Humidity Winds Wind Gusts Pressure Precip Precip Rate Daily Precip Total
12:00 AM 80.5°F26.9°C 21.1°F-6.1°C 11% 2.2 mph WNW3.5 kmh WNW 4.0 mph6.4 kmh 29.69 in1005.4 mb 0.00 in0.0 mm 0.00 in/hr0.0 mm/hr 0.00 in0.0 mm
12:15 AM 80.1°F26.7°C 20.8°F-6.2°C 11% 1.2 mph W1.9 kmh W 2.0 mph3.2 kmh 29.69 in1005.4 mb 0.00 in0.0 mm 0.00 in/hr0.0 mm/hr 0.00 in0.0 mm
12:30 AM 79.2°F26.2°C 22.2°F-5.4°C 12% 0.3 mph WNW0.5 kmh WNW 2.0 mph3.2 kmh 29.69 in1005.4 mb 0.00 in0.0 mm 0.00 in/hr0.0 mm/hr 0.00 in0.0 mm
12:45 AM 78.4°F25.8°C 21.5°F-5.8°C 12% Calm Calm -- 29.70 in1005.8 mb 0.00 in0.0 mm 0.00 in/hr0.0 mm/hr 0.00 in0.0 mm
01:00 AM 74.6°F23.7°C 23.9°F-4.5°C 15% Calm Calm -- 29.70 in1005.8 mb 0.00 in0.0 mm 0.00 in/hr0.0 mm/hr 0.00 in0.0 mm
01:15 AM 72.0°F22.2°C 24.8°F-4.0°C 17% Calm Calm -- 29.71 in1006.1 mb 0.00 in0.0 mm 0.00 in/hr0.0 mm/hr 0.00 in0.0 mm
01:30 AM 70.1°F21.2°C 25.9°F-3.4°C 19% Calm Calm 1.0 mph1.6 kmh 29.71 in1006.1 mb 0.00 in0.0 mm 0.00 in/hr0.0 mm/hr 0.00 in0.0 mm
01:45 AM 69.1°F20.6°C 26.3°F-3.2°C 20% Calm Calm -- 29.72 in1006.4 mb 0.00 in0.0 mm 0.00 in/hr0.0 mm/hr 0.00 in0.0 mm
02:00 AM 68.3°F20.2°C 25.6°F-3.6°C 20% Calm Calm -- 29.72 in1006.4 mb 0.00 in0.0 mm 0.00 in/hr0.0 mm/hr 0.00 in0.0 mm
02:15 AM 66.6°F19.2°C 25.4°F-3.7°C 21% Calm Calm -- 29.72 in1006.4 mb 0.00 in0.0 mm 0.00 in/hr0.0 mm/hr 0.00 in0.0 mm
02:30 AM 65.8°F18.8°C 25.8°F-3.4°C 22% Calm Calm -- 29.72 in1006.4 mb 0.00 in0.0 mm 0.00 in/hr0.0 mm/hr 0.00 in0.0 mm
02:45 AM 65.5°F18.6°C 24.5°F-4.2°C 21% Calm Calm -- 29.72 in1006.4 mb 0.00 in0.0 mm 0.00 in/hr0.0 mm/hr 0.00 in0.0 mm
03:00 AM 65.4°F18.6°C 25.5°F-3.6°C 22% Calm Calm -- 29.73 in1006.8 mb 0.00 in0.0 mm 0.00 in/hr0.0 mm/hr 0.00 in0.0 mm
03:15 AM 65.6°F18.7°C 25.7°F-3.5°C 22% Calm Calm -- 29.74 in1007.1 mb 0.00 in0.0 mm 0.00 in/hr0.0 mm/hr 0.00 in0.0 mm
03:30 AM 64.4°F18.0°C 24.7°F-4.1°C 22% Calm Calm -- 29.74 in1007.1 mb 0.00 in0.0 mm 0.00 in/hr0.0 mm/hr 0.00 in0.0 mm
03:45 AM 64.3°F17.9°C 24.6°F-4.1°C 22% Calm Calm -- 29.74 in1007.1 mb 0.00 in0.0 mm 0.00 in/hr0.0 mm/hr 0.00 in0.0 mm
04:00 AM 63.8°F17.7°C 25.3°F-3.7°C 23% Calm Calm -- 29.74 in1007.1 mb 0.00 in0.0 mm 0.00 in/hr0.0 mm/hr 0.00 in0.0 mm
04:15 AM 63.4°F17.4°C 24.9°F-3.9°C 23% Calm Calm -- 29.75 in1007.5 mb 0.00 in0.0 mm 0.00 in/hr0.0 mm/hr 0.00 in0.0 mm
04:30 AM 64.3°F17.9°C 25.7°F-3.5°C 23% 0.4 mph NW0.6 kmh NW -- 29.76 in1007.8 mb 0.00 in0.0 mm 0.00 in/hr0.0 mm/hr 0.00 in0.0 mm
04:45 AM 64.7°F18.2°C 26.0°F-3.3°C 23% Calm Calm -- 29.76 in1007.8 mb 0.00 in0.0 mm 0.00 in/hr0.0 mm/hr 0.00 in0.0 mm
05:00 AM 63.8°F17.7°C 26.3°F-3.2°C 24% Calm Calm -- 29.76 in1007.8 mb 0.00 in0.0 mm 0.00 in/hr0.0 mm/hr 0.00 in0.0 mm
05:15 AM 62.6°F17.0°C 26.3°F-3.2°C 25% Calm Calm -- 29.77 in1008.1 mb 0.00 in0.0 mm 0.00 in/hr0.0 mm/hr 0.00 in0.0 mm
05:30 AM 61.5°F16.4°C 27.1°F-2.7°C 27% Calm Calm -- 29.77 in1008.1 mb 0.00 in0.0 mm 0.00 in/hr0.0 mm/hr 0.00 in0.0 mm
05:45 AM 61.1°F16.2°C 26.8°F-2.9°C 27% Calm Calm -- 29.77 in1008.1 mb 0.00 in0.0 mm 0.00 in/hr0.0 mm/hr 0.00 in0.0 mm
06:00 AM 60.9°F16.1°C 26.7°F-2.9°C 27% Calm Calm -- 29.78 in1008.5 mb 0.00 in0.0 mm 0.00 in/hr0.0 mm/hr 0.00 in0.0 mm
06:15 AM 59.7°F15.4°C 26.5°F-3.1°C 28% Calm Calm -- 29.79 in1008.8 mb 0.00 in0.0 mm 0.00 in/hr0.0 mm/hr 0.00 in0.0 mm
06:30 AM 61.3°F16.3°C 27.9°F-2.3°C 28% Calm Calm -- 29.79 in1008.8 mb 0.00 in0.0 mm 0.00 in/hr0.0 mm/hr 0.00 in0.0 mm
06:45 AM 61.8°F16.6°C 28.3°F-2.1°C 28% Calm Calm -- 29.80 in1009.1 mb 0.00 in0.0 mm 0.00 in/hr0.0 mm/hr 0.00 in0.0 mm
07:00 AM 62.8°F17.1°C 30.0°F-1.1°C 29% Calm Calm -- 29.81 in1009.5 mb 0.00 in0.0 mm 0.00 in/hr0.0 mm/hr 0.00 in0.0 mm
07:15 AM 63.6°F17.6°C 29.8°F-1.2°C 28% Calm Calm -- 29.82 in1009.8 mb 0.00 in0.0 mm 0.00 in/hr0.0 mm/hr 0.00 in0.0 mm
07:30 AM 64.7°F18.2°C 30.0°F-1.1°C 27% Calm Calm -- 29.82 in1009.8 mb 0.00 in0.0 mm 0.00 in/hr0.0 mm/hr 0.00 in0.0 mm
07:45 AM 66.2°F19.0°C 27.3°F-2.6°C 23% Calm Calm -- 29.82 in1009.8 mb 0.00 in0.0 mm 0.00 in/hr0.0 mm/hr 0.00 in0.0 mm
08:00 AM 67.7°F19.8°C 28.5°F-1.9°C 23% Calm Calm -- 29.82 in1009.8 mb 0.00 in0.0 mm 0.00 in/hr0.0 mm/hr 0.00 in0.0 mm
08:15 AM 69.5°F20.8°C 29.0°F-1.7°C 22% Calm Calm -- 29.83 in1010.2 mb 0.00 in0.0 mm 0.00 in/hr0.0 mm/hr 0.00 in0.0 mm
08:30 AM 71.3°F21.8°C 26.9°F-2.8°C 19% 1.1 mph SE1.8 kmh SE 2.0 mph3.2 kmh 29.83 in1010.2 mb 0.00 in0.0 mm 0.00 in/hr0.0 mm/hr 0.00 in0.0 mm
08:45 AM 72.9°F22.7°C 28.2°F-2.1°C 19% 0.3 mph SE0.5 kmh SE 1.0 mph1.6 kmh 29.83 in1010.2 mb 0.00 in0.0 mm 0.00 in/hr0.0 mm/hr 0.00 in0.0 mm
09:00 AM 73.7°F23.2°C 27.5°F-2.5°C 18% 0.4 mph SSE0.6 kmh SSE 1.0 mph1.6 kmh 29.84 in1010.5 mb 0.00 in0.0 mm 0.00 in/hr0.0 mm/hr 0.00 in0.0 mm
09:15 AM 74.8°F23.8°C 25.6°F-3.6°C 16% 0.7 mph SE1.1 kmh SE 1.0 mph1.6 kmh 29.84 in1010.5 mb 0.00 in0.0 mm 0.00 in/hr0.0 mm/hr 0.00 in0.0 mm
09:30 AM 76.4°F24.7°C 25.3°F-3.7°C 15% 0.8 mph SSE1.3 kmh SSE 2.0 mph3.2 kmh 29.84 in1010.5 mb 0.00 in0.0 mm 0.00 in/hr0.0 mm/hr 0.00 in0.0 mm
09:45 AM 77.9°F25.5°C 24.8°F-4.0°C 14% 0.1 mph SSW0.2 kmh SSW 1.0 mph1.6 kmh 29.84 in1010.5 mb 0.00 in0.0 mm 0.00 in/hr0.0 mm/hr 0.00 in0.0 mm
10:00 AM 79.0°F26.1°C 23.9°F-4.5°C 13% 2.5 mph ESE4.0 kmh ESE 6.0 mph9.7 kmh 29.84 in1010.5 mb 0.00 in0.0 mm 0.00 in/hr0.0 mm/hr 0.00 in0.0 mm
10:15 AM 80.1°F26.7°C 24.8°F-4.0°C 13% 0.5 mph W0.8 kmh W 1.0 mph1.6 kmh 29.85 in1010.8 mb 0.00 in0.0 mm 0.00 in/hr0.0 mm/hr 0.00 in0.0 mm
10:30 AM 81.3°F27.4°C 19.5°F-6.9°C 10% 1.2 mph WNW1.9 kmh WNW 3.0 mph4.8 kmh 29.84 in1010.5 mb 0.00 in0.0 mm 0.00 in/hr0.0 mm/hr 0.00 in0.0 mm
10:45 AM 82.4°F28.0°C 24.7°F-4.1°C 12% 1.2 mph SSW1.9 kmh SSW 2.0 mph3.2 kmh 29.84 in1010.5 mb 0.00 in0.0 mm 0.00 in/hr0.0 mm/hr 0.00 in0.0 mm
11:00 AM 83.6°F28.7°C 25.6°F-3.6°C 12% 1.6 mph SE2.6 kmh SE 3.0 mph4.8 kmh 29.84 in1010.5 mb 0.00 in0.0 mm 0.00 in/hr0.0 mm/hr 0.00 in0.0 mm
11:15 AM 82.5°F28.1°C 22.7°F-5.2°C 11% 0.3 mph WSW0.5 kmh WSW 2.0 mph3.2 kmh 29.83 in1010.2 mb 0.00 in0.0 mm 0.00 in/hr0.0 mm/hr 0.00 in0.0 mm
11:30 AM 84.2°F29.0°C 21.7°F-5.7°C 10% 1.6 mph W2.6 kmh W 5.0 mph8.0 kmh 29.83 in1010.2 mb 0.00 in0.0 mm 0.00 in/hr0.0 mm/hr 0.00 in0.0 mm
11:45 AM 85.1°F29.5°C 19.9°F-6.7°C 9% 0.6 mph SE1.0 kmh SE 1.0 mph1.6 kmh 29.82 in1009.8 mb 0.00 in0.0 mm 0.00 in/hr0.0 mm/hr 0.00 in0.0 mm
12:00 PM 85.3°F29.6°C 20.0°F-6.7°C 9% 0.3 mph SE0.5 kmh SE 1.0 mph1.6 kmh 29.81 in1009.5 mb 0.00 in0.0 mm 0.00 in/hr0.0 mm/hr 0.00 in0.0 mm
12:15 PM 86.7°F30.4°C 21.1°F-6.1°C 9% 2.9 mph ESE4.7 kmh ESE 3.0 mph4.8 kmh 29.81 in1009.5 mb 0.00 in0.0 mm 0.00 in/hr0.0 mm/hr 0.00 in0.0 mm
12:30 PM 87.7°F30.9°C 19.1°F-7.2°C 8% 0.5 mph WSW0.8 kmh WSW 2.0 mph3.2 kmh 29.80 in1009.1 mb 0.00 in0.0 mm 0.00 in/hr0.0 mm/hr 0.00 in0.0 mm
12:45 PM 88.3°F31.3°C 22.3°F-5.4°C 9% 0.4 mph ENE0.6 kmh ENE -- 29.80 in1009.1 mb 0.00 in0.0 mm 0.00 in/hr0.0 mm/hr 0.00 in0.0 mm
01:00 PM 89.8°F32.1°C 23.4°F-4.8°C 9% 1.2 mph WSW1.9 kmh WSW 3.0 mph4.8 kmh 29.79 in1008.8 mb 0.00 in0.0 mm 0.00 in/hr0.0 mm/hr 0.00 in0.0 mm
01:15 PM 89.2°F31.8°C 20.2°F-6.6°C 8% 2.0 mph WSW3.2 kmh WSW 3.0 mph4.8 kmh 29.78 in1008.5 mb 0.00 in0.0 mm 0.00 in/hr0.0 mm/hr 0.00 in0.0 mm
01:30 PM 89.9°F32.2°C 23.5°F-4.7°C 9% 2.4 mph S3.9 kmh S 5.0 mph8.0 kmh 29.77 in1008.1 mb 0.00 in0.0 mm 0.00 in/hr0.0 mm/hr 0.00 in0.0 mm
01:45 PM 90.2°F32.3°C 20.9°F-6.2°C 8% 0.8 mph ESE1.3 kmh ESE 11.0 mph17.7 kmh 29.77 in1008.1 mb 0.00 in0.0 mm 0.00 in/hr0.0 mm/hr 0.00 in0.0 mm
02:00 PM 91.0°F32.8°C 21.5°F-5.8°C 8% 0.5 mph E0.8 kmh E 1.0 mph1.6 kmh 29.77 in1008.1 mb 0.00 in0.0 mm 0.00 in/hr0.0 mm/hr 0.00 in0.0 mm
02:15 PM 91.7°F33.2°C 22.0°F-5.6°C 8% 2.4 mph SW3.9 kmh SW 5.0 mph8.0 kmh 29.76 in1007.8 mb 0.00 in0.0 mm 0.00 in/hr0.0 mm/hr 0.00 in0.0 mm
02:30 PM 91.5°F33.1°C 24.7°F-4.1°C 9% 1.7 mph SE2.7 kmh SE 4.0 mph6.4 kmh 29.75 in1007.5 mb 0.00 in0.0 mm 0.00 in/hr0.0 mm/hr 0.00 in0.0 mm
02:45 PM 91.7°F33.2°C 22.0°F-5.6°C 8% 1.6 mph S2.6 kmh S 3.0 mph4.8 kmh 29.74 in1007.1 mb 0.00 in0.0 mm 0.00 in/hr0.0 mm/hr 0.00 in0.0 mm
03:00 PM 92.0°F33.3°C 22.2°F-5.4°C 8% 0.6 mph SW1.0 kmh SW 1.0 mph1.6 kmh 29.74 in1007.1 mb 0.00 in0.0 mm 0.00 in/hr0.0 mm/hr 0.00 in0.0 mm
03:15 PM 91.7°F33.2°C 18.9°F-7.3°C 7% 1.3 mph ESE2.1 kmh ESE 3.0 mph4.8 kmh 29.73 in1006.8 mb 0.00 in0.0 mm 0.00 in/hr0.0 mm/hr 0.00 in0.0 mm
03:30 PM 93.2°F34.0°C 20.0°F-6.7°C 7% 0.3 mph N0.5 kmh N 1.0 mph1.6 kmh 29.72 in1006.4 mb 0.00 in0.0 mm 0.00 in/hr0.0 mm/hr 0.00 in0.0 mm
03:45 PM 93.0°F33.9°C 19.8°F-6.8°C 7% 2.5 mph SE4.0 kmh SE 4.0 mph6.4 kmh 29.72 in1006.4 mb 0.00 in0.0 mm 0.00 in/hr0.0 mm/hr 0.00 in0.0 mm
04:00 PM 93.2°F34.0°C 23.2°F-4.9°C 8% 0.6 mph WNW1.0 kmh WNW 4.0 mph6.4 kmh 29.71 in1006.1 mb 0.00 in0.0 mm 0.00 in/hr0.0 mm/hr 0.00 in0.0 mm
04:15 PM 92.3°F33.5°C 19.3°F-7.1°C 7% 0.5 mph NNW0.8 kmh NNW 1.0 mph1.6 kmh 29.71 in1006.1 mb 0.00 in0.0 mm 0.00 in/hr0.0 mm/hr 0.00 in0.0 mm
04:30 PM 92.2°F33.4°C 19.2°F-7.1°C 7% 1.4 mph WNW2.3 kmh WNW 3.0 mph4.8 kmh 29.70 in1005.8 mb 0.00 in0.0 mm 0.00 in/hr0.0 mm/hr 0.00 in0.0 mm
04:45 PM 93.2°F34.0°C 20.0°F-6.7°C 7% 2.9 mph WSW4.7 kmh WSW 4.0 mph6.4 kmh 29.71 in1006.1 mb 0.00 in0.0 mm 0.00 in/hr0.0 mm/hr 0.00 in0.0 mm
05:00 PM 92.1°F33.4°C 19.2°F-7.1°C 7% 0.1 mph SE0.2 kmh SE 1.0 mph1.6 kmh 29.70 in1005.8 mb 0.00 in0.0 mm 0.00 in/hr0.0 mm/hr 0.00 in0.0 mm
05:15 PM 91.5°F33.1°C 21.9°F-5.6°C 8% 2.2 mph S3.5 kmh S 4.0 mph6.4 kmh 29.70 in1005.8 mb 0.00 in0.0 mm 0.00 in/hr0.0 mm/hr 0.00 in0.0 mm
05:45 PM 90.3°F32.4°C 21.0°F-6.1°C 8% 0.9 mph SE1.4 kmh SE 2.0 mph3.2 kmh 29.69 in1005.4 mb 0.00 in0.0 mm 0.00 in/hr0.0 mm/hr 0.00 in0.0 mm
06:00 PM 90.6°F32.6°C 21.2°F-6.0°C 8% 1.0 mph ESE1.6 kmh ESE 2.0 mph3.2 kmh 29.69 in1005.4 mb 0.00 in0.0 mm 0.00 in/hr0.0 mm/hr 0.00 in0.0 mm
06:15 PM 88.9°F31.6°C 22.7°F-5.2°C 9% 0.3 mph SE0.5 kmh SE 1.0 mph1.6 kmh 29.69 in1005.4 mb 0.00 in0.0 mm 0.00 in/hr0.0 mm/hr 0.00 in0.0 mm
06:30 PM 87.9°F31.1°C 19.3°F-7.1°C 8% Calm Calm -- 29.68 in1005.1 mb 0.00 in0.0 mm 0.00 in/hr0.0 mm/hr 0.00 in0.0 mm
06:45 PM 86.3°F30.2°C 20.8°F-6.2°C 9% Calm Calm -- 29.69 in1005.4 mb 0.00 in0.0 mm 0.00 in/hr0.0 mm/hr 0.00 in0.0 mm
07:00 PM 83.7°F28.7°C 23.6°F-4.7°C 11% Calm Calm -- 29.69 in1005.4 mb 0.00 in0.0 mm 0.00 in/hr0.0 mm/hr 0.00 in0.0 mm
07:15 PM 83.3°F28.5°C 23.3°F-4.8°C 11% Calm Calm -- 29.69 in1005.4 mb 0.00 in0.0 mm 0.00 in/hr0.0 mm/hr 0.00 in0.0 mm
07:30 PM 82.0°F27.8°C 24.3°F-4.3°C 12% Calm Calm -- 29.69 in1005.4 mb 0.00 in0.0 mm 0.00 in/hr0.0 mm/hr 0.00 in0.0 mm
07:45 PM 81.0°F27.2°C 25.5°F-3.6°C 13% Calm Calm -- 29.69 in1005.4 mb 0.00 in0.0 mm 0.00 in/hr0.0 mm/hr 0.00 in0.0 mm
08:00 PM 80.1°F26.7°C 26.6°F-3.0°C 14% Calm Calm -- 29.69 in1005.4 mb 0.00 in0.0 mm 0.00 in/hr0.0 mm/hr 0.00 in0.0 mm
08:15 PM 79.3°F26.3°C 25.9°F-3.4°C 14% Calm Calm -- 29.70 in1005.8 mb 0.00 in0.0 mm 0.00 in/hr0.0 mm/hr 0.00 in0.0 mm
08:30 PM 78.5°F25.8°C 27.0°F-2.8°C 15% Calm Calm -- 29.70 in1005.8 mb 0.00 in0.0 mm 0.00 in/hr0.0 mm/hr 0.00 in0.0 mm
08:45 PM 78.1°F25.6°C 25.0°F-3.9°C 14% Calm Calm -- 29.71 in1006.1 mb 0.00 in0.0 mm 0.00 in/hr0.0 mm/hr 0.00 in0.0 mm
09:00 PM 80.0°F26.7°C 24.7°F-4.1°C 13% Calm Calm -- 29.72 in1006.4 mb 0.00 in0.0 mm 0.00 in/hr0.0 mm/hr 0.00 in0.0 mm
09:15 PM 81.2°F27.3°C 23.7°F-4.6°C 12% Calm Calm -- 29.72 in1006.4 mb 0.00 in0.0 mm 0.00 in/hr0.0 mm/hr 0.00 in0.0 mm
09:30 PM 82.4°F28.0°C 22.6°F-5.2°C 11% 0.5 mph WSW0.8 kmh WSW 3.0 mph4.8 kmh 29.72 in1006.4 mb 0.00 in0.0 mm 0.00 in/hr0.0 mm/hr 0.00 in0.0 mm
09:45 PM 82.7°F28.2°C 22.8°F-5.1°C 11% 0.3 mph SW0.5 kmh SW 2.0 mph3.2 kmh 29.73 in1006.8 mb 0.00 in0.0 mm 0.00 in/hr0.0 mm/hr 0.00 in0.0 mm
10:00 PM 81.5°F27.5°C 21.9°F-5.6°C 11% 1.9 mph WSW3.1 kmh WSW 3.0 mph4.8 kmh 29.73 in1006.8 mb 0.00 in0.0 mm 0.00 in/hr0.0 mm/hr 0.00 in0.0 mm
10:15 PM 82.1°F27.8°C 22.4°F-5.3°C 11% 2.0 mph WSW3.2 kmh WSW 3.0 mph4.8 kmh 29.72 in1006.4 mb 0.00 in0.0 mm 0.00 in/hr0.0 mm/hr 0.00 in0.0 mm
10:30 PM 82.2°F27.9°C 22.4°F-5.3°C 11% 1.0 mph W1.6 kmh W 2.0 mph3.2 kmh 29.72 in1006.4 mb 0.00 in0.0 mm 0.00 in/hr0.0 mm/hr 0.00 in0.0 mm
10:45 PM 81.7°F27.6°C 22.0°F-5.6°C 11% 0.9 mph WSW1.4 kmh WSW 2.0 mph3.2 kmh 29.72 in1006.4 mb 0.00 in0.0 mm 0.00 in/hr0.0 mm/hr 0.00 in0.0 mm
11:00 PM 81.0°F27.2°C 21.5°F-5.8°C 11% 0.2 mph WSW0.3 kmh WSW 1.0 mph1.6 kmh 29.72 in1006.4 mb 0.00 in0.0 mm 0.00 in/hr0.0 mm/hr 0.00 in0.0 mm
11:15 PM 81.2°F27.3°C 21.7°F-5.7°C 11% 1.5 mph NW2.4 kmh NW 5.0 mph8.0 kmh 29.72 in1006.4 mb 0.00 in0.0 mm 0.00 in/hr0.0 mm/hr 0.00 in0.0 mm
11:30 PM 81.4°F27.4°C 25.8°F-3.4°C 13% 3.6 mph W5.8 kmh W 7.0 mph11.3 kmh 29.72 in1006.4 mb 0.00 in0.0 mm 0.00 in/hr0.0 mm/hr 0.00 in0.0 mm
11:45 PM 81.1°F27.3°C 27.4°F-2.6°C 14% 4.8 mph W7.7 kmh W 9.0 mph14.5 kmh 29.72 in1006.4 mb 0.00 in0.0 mm 0.00 in/hr0.0 mm/hr 0.00 in0.0 mm